createdAt,value
2023-03-26T00:00:03.014Z,8.1
2023-03-26T00:20:02.895Z,8.1
2023-03-26T00:40:02.221Z,8.1
2023-03-26T01:00:02.636Z,8
2023-03-26T01:20:02.549Z,8.1
2023-03-26T01:40:03.072Z,8.1
2023-03-26T02:00:02.716Z,8
2023-03-26T02:20:02.726Z,7.8
2023-03-26T02:40:03.245Z,7.6
2023-03-26T03:00:02.835Z,7.5
2023-03-26T03:20:02.628Z,7.4
2023-03-26T03:40:03.149Z,7.6
2023-03-26T04:00:03.503Z,7.6
2023-03-26T04:20:02.103Z,7.7
2023-03-26T04:40:02.755Z,7.6
2023-03-26T05:00:02.212Z,7.7
2023-03-26T05:20:02.840Z,7.6
2023-03-26T05:40:02.349Z,7.6
2023-03-26T06:00:02.867Z,7.6
2023-03-26T06:20:02.647Z,7.7
2023-03-26T06:40:03.172Z,7.9
2023-03-26T07:00:02.645Z,7.2
2023-03-26T07:20:02.263Z,7.2
2023-03-26T07:40:02.907Z,7.6
2023-03-26T08:00:02.320Z,8.6
2023-03-26T08:20:03.240Z,8.7
2023-03-26T08:40:02.629Z,8.6
2023-03-26T09:00:03.148Z,8.9
2023-03-26T09:20:03.148Z,9.3
2023-03-26T09:40:02.882Z,9
2023-03-26T10:00:03.298Z,8.9
2023-03-26T10:20:03.150Z,8.7
2023-03-26T10:40:02.532Z,8.5
2023-03-26T11:00:02.898Z,8.6
2023-03-26T11:20:02.644Z,8.6
2023-03-26T11:40:03.132Z,9
2023-03-26T12:00:02.817Z,9.7
2023-03-26T12:20:02.694Z,10.5
2023-03-26T12:40:08.289Z,11
2023-03-26T13:00:02.425Z,11.5
2023-03-26T13:20:02.274Z,11.1
2023-03-26T13:40:02.831Z,10.9
2023-03-26T14:00:02.544Z,11
2023-03-26T14:20:02.164Z,11.1
2023-03-26T14:40:02.610Z,11.1
2023-03-26T15:00:03.026Z,11.4
2023-03-26T15:20:02.367Z,11.3
2023-03-26T15:40:02.743Z,11
2023-03-26T16:00:02.444Z,10.8
2023-03-26T16:20:02.951Z,10.8
2023-03-26T16:40:02.547Z,10.6
2023-03-26T17:00:04.969Z,10.4
2023-03-26T17:20:03.077Z,10.2
2023-03-26T17:40:02.481Z,10
2023-03-26T18:00:02.855Z,9.8
2023-03-26T18:20:02.502Z,9.5
2023-03-26T18:40:03.001Z,9.5
2023-03-26T19:00:02.528Z,9.3
2023-03-26T19:20:02.772Z,8.9
2023-03-26T19:40:02.445Z,8.6
2023-03-26T20:00:03.040Z,8.3
2023-03-26T20:20:02.805Z,7.9
2023-03-26T20:40:02.415Z,7.6
2023-03-26T21:00:02.844Z,7.2
2023-03-26T21:20:02.241Z,7.1
2023-03-26T21:40:02.799Z,6.8
2023-03-26T22:00:02.194Z,6.7
2023-03-26T22:20:03.004Z,6.6
2023-03-26T22:40:02.556Z,6.5
2023-03-26T23:00:03.108Z,6.2
2023-03-26T23:20:02.838Z,5.8
2023-03-26T23:40:03.051Z,5.5
